createdAt,value
2022-09-06T00:01:08.307Z,1.10
2022-09-06T00:03:34.825Z,1.10
2022-09-06T00:06:09.805Z,0.95
2022-09-06T00:08:37.039Z,1.10
2022-09-06T00:11:03.777Z,1.00
2022-09-06T00:13:30.381Z,1.00
2022-09-06T00:15:56.984Z,1.00
2022-09-06T00:18:23.701Z,1.02
2022-09-06T00:20:50.271Z,0.90
2022-09-06T00:23:16.918Z,1.10
2022-09-06T00:25:43.461Z,1.05
2022-09-06T00:28:10.064Z,1.10
2022-09-06T00:30:37.228Z,0.82
2022-09-06T00:33:04.117Z,1.10
2022-09-06T00:35:30.646Z,1.17
2022-09-06T00:38:01.536Z,0.98
2022-09-06T00:40:30.201Z,1.00
2022-09-06T00:42:57.484Z,0.73
2022-09-06T00:45:25.995Z,0.90
2022-09-06T00:47:52.589Z,1.10
2022-09-06T00:50:19.802Z,1.20
2022-09-06T00:52:49.800Z,1.00
2022-09-06T00:55:17.371Z,0.93
2022-09-06T00:57:46.400Z,0.77
2022-09-06T01:00:13.497Z,0.90
2022-09-06T01:02:40.097Z,0.98
2022-09-06T01:05:07.113Z,0.90
2022-09-06T01:08:11.844Z,1.00
2022-09-06T01:10:44.764Z,0.90
2022-09-06T01:13:49.056Z,0.90
2022-09-06T01:16:54.063Z,0.85
2022-09-06T01:19:26.657Z,1.10
2022-09-06T01:22:08.716Z,1.08
2022-09-06T01:24:52.163Z,0.77
2022-09-06T01:27:43.274Z,1.08
2022-09-06T01:30:12.892Z,1.00
2022-09-06T01:32:51.552Z,1.10
2022-09-06T01:35:38.409Z,1.00
2022-09-06T01:38:07.155Z,1.10
2022-09-06T01:40:36.467Z,1.00
2022-09-06T01:43:10.199Z,1.00
2022-09-06T01:45:53.726Z,0.90
2022-09-06T01:48:39.862Z,0.85
2022-09-06T01:51:32.208Z,0.90
2022-09-06T01:54:23.759Z,1.20
2022-09-06T01:57:09.172Z,0.75
2022-09-06T02:00:01.031Z,0.80
2022-09-06T02:02:52.045Z,0.82
2022-09-06T02:05:28.635Z,1.00
2022-09-06T02:08:01.767Z,1.00
2022-09-06T02:10:37.832Z,0.90
2022-09-06T02:13:07.417Z,0.80
2022-09-06T02:15:37.910Z,1.15
2022-09-06T02:18:23.792Z,1.00
2022-09-06T02:20:56.998Z,0.77
2022-09-06T02:23:29.486Z,1.13
2022-09-06T02:26:03.197Z,1.20
2022-09-06T02:28:29.790Z,0.98
2022-09-06T02:31:01.065Z,1.10
2022-09-06T02:33:32.079Z,1.00
2022-09-06T02:36:05.793Z,1.10
2022-09-06T02:38:35.683Z,1.00
2022-09-06T02:41:04.678Z,1.08
2022-09-06T02:43:31.203Z,1.10
2022-09-06T02:45:57.794Z,0.88
2022-09-06T02:48:24.372Z,1.10
2022-09-06T02:50:50.976Z,1.25
2022-09-06T02:53:18.283Z,1.20
2022-09-06T02:55:47.563Z,1.27
2022-09-06T02:58:15.258Z,1.20
2022-09-06T03:00:41.838Z,1.00
2022-09-06T03:03:08.590Z,1.20
2022-09-06T03:05:35.647Z,1.08
2022-09-06T03:08:02.392Z,1.02
2022-09-06T03:10:28.896Z,1.10
2022-09-06T03:12:55.547Z,1.30
2022-09-06T03:15:22.082Z,1.40
2022-09-06T03:17:48.578Z,1.00
2022-09-06T03:20:15.218Z,1.35
2022-09-06T03:22:41.946Z,1.20
2022-09-06T03:25:10.235Z,1.10
2022-09-06T03:27:37.117Z,1.30
2022-09-06T03:30:05.496Z,1.20
2022-09-06T03:32:32.048Z,1.20
2022-09-06T03:34:59.350Z,1.30
2022-09-06T03:37:25.862Z,1.40
2022-09-06T03:39:52.408Z,1.33
2022-09-06T03:42:18.965Z,1.20
2022-09-06T03:44:45.868Z,1.27
2022-09-06T03:47:12.410Z,1.30
2022-09-06T03:49:39.488Z,1.40
2022-09-06T03:52:06.246Z,1.17
2022-09-06T03:54:32.797Z,1.20
2022-09-06T03:56:59.290Z,1.30
2022-09-06T03:59:25.824Z,1.20
2022-09-06T04:01:52.516Z,1.10
2022-09-06T04:04:19.038Z,1.25
2022-09-06T04:06:45.513Z,1.25
2022-09-06T04:09:12.054Z,1.33
2022-09-06T04:11:38.563Z,1.48
2022-09-06T04:14:05.040Z,1.58
2022-09-06T04:16:31.649Z,1.42
2022-09-06T04:19:00.042Z,1.20
2022-09-06T04:21:26.829Z,1.60
2022-09-06T04:23:54.406Z,1.80
2022-09-06T04:26:20.977Z,1.65
2022-09-06T04:28:47.501Z,1.40
2022-09-06T04:31:14.113Z,1.30
2022-09-06T04:33:40.937Z,1.50
2022-09-06T04:36:10.133Z,1.73
2022-09-06T04:38:42.102Z,1.50
2022-09-06T04:41:11.591Z,1.80
2022-09-06T04:43:38.431Z,1.48
2022-09-06T04:46:06.425Z,1.67
2022-09-06T04:48:33.055Z,1.60
2022-09-06T04:50:59.534Z,1.73
2022-09-06T04:53:26.071Z,1.45
2022-09-06T04:55:52.938Z,1.48
2022-09-06T04:58:19.436Z,1.90
2022-09-06T05:00:45.999Z,1.60
2022-09-06T05:03:12.634Z,2.08
2022-09-06T05:05:39.170Z,1.70
2022-09-06T05:08:05.696Z,1.52
2022-09-06T05:10:32.259Z,1.90
2022-09-06T05:12:58.841Z,1.42
2022-09-06T05:15:25.409Z,1.80
2022-09-06T05:17:52.163Z,1.70
2022-09-06T05:20:19.052Z,1.50
2022-09-06T05:22:53.126Z,1.80
2022-09-06T05:25:19.751Z,1.60
2022-09-06T05:27:46.273Z,1.65
2022-09-06T05:30:13.570Z,1.70
2022-09-06T05:32:40.212Z,1.70
2022-09-06T05:37:45.578Z,1.80
2022-09-06T05:40:12.488Z,1.90
2022-09-06T05:42:41.002Z,1.75
2022-09-06T05:45:08.182Z,1.70
2022-09-06T05:47:35.497Z,1.60
2022-09-06T05:50:03.425Z,2.20
2022-09-06T05:52:30.176Z,1.67
2022-09-06T05:54:56.702Z,1.77
2022-09-06T05:57:23.311Z,1.92
2022-09-06T05:59:49.900Z,1.52
2022-09-06T06:02:16.615Z,1.60
2022-09-06T06:04:43.410Z,2.00
2022-09-06T06:07:10.000Z,1.65
2022-09-06T06:09:36.981Z,1.98
2022-09-06T06:12:03.939Z,1.80
2022-09-06T06:14:30.446Z,1.60
2022-09-06T06:16:57.010Z,1.80
2022-09-06T06:19:23.654Z,1.80
2022-09-06T06:21:50.176Z,2.20
2022-09-06T06:24:16.676Z,1.90
2022-09-06T06:26:43.177Z,2.10
2022-09-06T06:29:10.142Z,1.67
2022-09-06T06:31:38.796Z,2.05
2022-09-06T06:34:05.546Z,1.95
2022-09-06T06:36:33.928Z,1.90
2022-09-06T06:39:01.910Z,1.80
2022-09-06T06:41:31.812Z,1.88
2022-09-06T06:44:03.532Z,2.00
2022-09-06T06:46:32.653Z,1.80
2022-09-06T06:48:59.141Z,1.95
2022-09-06T06:51:28.821Z,1.80
2022-09-06T06:53:57.055Z,2.10
2022-09-06T06:56:28.170Z,1.95
2022-09-06T06:58:58.002Z,1.70
2022-09-06T07:01:26.478Z,1.95
2022-09-06T07:03:54.380Z,1.58
2022-09-06T07:06:22.044Z,1.77
2022-09-06T07:08:49.338Z,1.70
2022-09-06T07:11:20.432Z,2.20
2022-09-06T07:13:49.606Z,2.17
2022-09-06T07:16:19.639Z,2.00
2022-09-06T07:18:46.549Z,1.92
2022-09-06T07:26:31.934Z,2.22
2022-09-06T07:29:00.759Z,1.85
2022-09-06T07:34:15.994Z,1.80
2022-09-06T07:36:42.516Z,1.88
2022-09-06T07:39:09.027Z,1.70
2022-09-06T07:41:35.655Z,1.80
2022-09-06T07:44:02.356Z,1.50
2022-09-06T07:46:28.967Z,1.90
2022-09-06T07:48:55.514Z,2.10
2022-09-06T07:51:22.264Z,1.63
2022-09-06T07:54:07.390Z,2.05
2022-09-06T07:56:41.936Z,1.80
2022-09-06T07:59:09.269Z,1.77
2022-09-06T08:01:38.154Z,1.50
2022-09-06T08:04:13.972Z,1.60
2022-09-06T08:09:33.037Z,1.70
2022-09-06T08:11:59.711Z,1.80
2022-09-06T08:14:26.219Z,1.70
2022-09-06T08:16:52.710Z,1.90
2022-09-06T08:19:19.191Z,1.77
2022-09-06T08:21:45.733Z,2.00
2022-09-06T08:24:12.289Z,1.90
2022-09-06T08:26:40.652Z,2.00
2022-09-06T08:29:08.836Z,1.90
2022-09-06T08:31:37.753Z,1.80
2022-09-06T08:34:04.711Z,1.80
2022-09-06T08:36:31.732Z,1.90
2022-09-06T08:39:00.285Z,1.88
2022-09-06T08:41:51.961Z,2.03
2022-09-06T08:47:13.603Z,1.85
2022-09-06T08:49:43.708Z,2.10
2022-09-06T08:52:19.152Z,1.92
2022-09-06T08:54:59.129Z,2.15
2022-09-06T08:57:59.017Z,1.77
2022-09-06T09:00:26.009Z,2.13
2022-09-06T09:03:06.346Z,1.85
2022-09-06T09:05:35.509Z,2.08
2022-09-06T09:08:06.447Z,2.10
2022-09-06T09:10:47.044Z,2.15
2022-09-06T09:13:27.511Z,1.70
2022-09-06T09:15:54.238Z,1.90
2022-09-06T09:18:42.890Z,1.90
2022-09-06T09:23:54.324Z,1.90
2022-09-06T09:26:24.337Z,2.17
2022-09-06T09:29:10.276Z,1.98
2022-09-06T09:31:42.458Z,2.20
2022-09-06T09:34:14.893Z,1.90
2022-09-06T09:36:41.468Z,2.17
2022-09-06T09:39:19.898Z,1.75
2022-09-06T09:41:50.631Z,2.83
2022-09-06T09:44:19.299Z,2.08
2022-09-06T09:46:45.891Z,2.28
2022-09-06T09:49:22.515Z,2.80
2022-09-06T09:52:16.138Z,3.60
2022-09-06T09:57:18.617Z,3.88
2022-09-06T10:05:30.840Z,3.20
2022-09-06T10:07:58.899Z,3.65
2022-09-06T10:10:47.601Z,4.22
2022-09-06T10:13:31.307Z,3.58
2022-09-06T10:16:00.001Z,3.40
2022-09-06T10:18:34.689Z,3.05
2022-09-06T10:21:04.137Z,3.28
2022-09-06T10:26:38.415Z,2.47
2022-09-06T10:29:06.982Z,2.95
2022-09-06T10:31:43.424Z,2.60
2022-09-06T10:34:24.533Z,2.40
2022-09-06T10:37:25.437Z,2.47
2022-09-06T10:40:10.184Z,2.40
2022-09-06T10:42:46.962Z,2.40
2022-09-06T10:45:50.943Z,2.38
2022-09-06T10:48:29.965Z,2.40
2022-09-06T10:51:24.646Z,2.60
2022-09-06T10:54:01.970Z,2.35
2022-09-06T10:56:36.081Z,2.38
2022-09-06T11:02:03.534Z,2.53
2022-09-06T11:07:38.198Z,2.42
2022-09-06T11:10:16.378Z,2.27
2022-09-06T11:12:49.799Z,2.30
2022-09-06T11:15:19.229Z,2.40
2022-09-06T11:20:53.242Z,2.20
2022-09-06T11:23:25.855Z,2.22
2022-09-06T11:25:58.144Z,2.00
2022-09-06T11:28:37.330Z,2.22
2022-09-06T11:31:05.771Z,2.15
2022-09-06T11:33:36.267Z,2.08
2022-09-06T11:36:34.400Z,2.13
2022-09-06T11:39:03.255Z,1.77
2022-09-06T11:41:36.860Z,2.10
2022-09-06T11:44:04.517Z,1.83
2022-09-06T11:46:34.006Z,1.90
2022-09-06T11:49:06.938Z,1.90
2022-09-06T11:51:39.229Z,1.90
2022-09-06T11:54:18.066Z,1.83
2022-09-06T11:57:01.981Z,1.55
2022-09-06T11:59:43.527Z,1.83
2022-09-06T12:02:37.840Z,1.40
2022-09-06T12:05:04.728Z,1.70
2022-09-06T12:07:32.496Z,1.45
2022-09-06T12:10:02.601Z,1.35
2022-09-06T12:15:25.625Z,1.70
2022-09-06T12:17:52.658Z,1.70
2022-09-06T12:20:54.353Z,1.75
2022-09-06T12:23:36.199Z,1.70
2022-09-06T12:26:09.851Z,1.50
2022-09-06T12:28:52.675Z,1.60
2022-09-06T12:31:58.297Z,1.58
2022-09-06T12:34:28.641Z,1.60
2022-09-06T12:36:55.081Z,1.60
2022-09-06T12:39:22.154Z,1.60
2022-09-06T12:42:02.309Z,1.67
2022-09-06T12:50:26.422Z,1.52
2022-09-06T12:52:55.477Z,1.42
2022-09-06T12:55:32.523Z,1.33
2022-09-06T12:58:01.389Z,1.33
2022-09-06T13:00:37.538Z,1.40
2022-09-06T13:03:12.893Z,1.42
2022-09-06T13:05:41.636Z,1.50
2022-09-06T13:08:14.418Z,1.40
2022-09-06T13:10:45.230Z,1.60
2022-09-06T13:13:18.200Z,1.10
2022-09-06T13:15:46.980Z,1.52
2022-09-06T13:18:27.108Z,1.40
2022-09-06T13:23:44.913Z,1.30
2022-09-06T13:26:11.620Z,1.13
2022-09-06T13:28:38.600Z,1.23
2022-09-06T13:31:09.473Z,1.25
2022-09-06T13:33:37.927Z,1.17
2022-09-06T13:36:08.726Z,1.30
2022-09-06T13:38:38.190Z,1.20
2022-09-06T13:41:14.708Z,1.30
2022-09-06T13:43:53.663Z,1.42
2022-09-06T13:46:20.640Z,1.30
2022-09-06T13:48:47.208Z,1.45
2022-09-06T13:51:13.808Z,1.40
2022-09-06T13:53:40.563Z,1.20
2022-09-06T13:56:08.729Z,1.50
2022-09-06T13:58:36.148Z,1.85
2022-09-06T14:01:03.287Z,2.00
2022-09-06T14:03:32.456Z,1.90
2022-09-06T14:06:00.432Z,1.50
2022-09-06T14:08:43.426Z,1.55
2022-09-06T14:11:14.848Z,1.40
2022-09-06T14:13:41.440Z,1.85
2022-09-06T14:16:08.377Z,2.08
2022-09-06T14:18:35.021Z,1.58
2022-09-06T14:21:02.016Z,1.80
2022-09-06T14:23:28.574Z,1.50
2022-09-06T14:26:00.094Z,1.52
2022-09-06T14:28:27.638Z,1.45
2022-09-06T14:30:55.045Z,1.63
2022-09-06T14:33:21.643Z,1.70
2022-09-06T14:35:49.224Z,1.60
2022-09-06T14:38:16.240Z,1.45
2022-09-06T14:40:44.221Z,1.35
2022-09-06T14:43:11.527Z,1.50
2022-09-06T14:45:38.433Z,1.40
2022-09-06T14:48:05.600Z,1.45
2022-09-06T14:50:32.182Z,1.38
2022-09-06T14:52:58.766Z,1.38
2022-09-06T14:55:25.433Z,1.60
2022-09-06T14:57:52.374Z,1.08
2022-09-06T15:00:19.346Z,1.10
2022-09-06T15:02:45.918Z,1.25
2022-09-06T15:05:12.542Z,1.42
2022-09-06T15:07:39.020Z,1.20
2022-09-06T15:10:05.802Z,1.38
2022-09-06T15:12:32.381Z,1.38
2022-09-06T15:14:59.129Z,1.27
2022-09-06T15:17:25.743Z,1.40
2022-09-06T15:19:52.421Z,1.50
2022-09-06T15:22:19.005Z,1.20
2022-09-06T15:24:45.725Z,1.17
2022-09-06T15:27:12.451Z,1.15
2022-09-06T15:29:39.543Z,1.10
2022-09-06T15:32:06.242Z,1.30
2022-09-06T15:34:32.739Z,1.00
2022-09-06T15:37:00.343Z,1.23
2022-09-06T15:39:26.957Z,1.05
2022-09-06T15:41:53.521Z,1.50
2022-09-06T15:44:23.790Z,1.00
2022-09-06T15:46:55.687Z,1.08
2022-09-06T15:49:29.516Z,0.98
2022-09-06T15:51:57.579Z,1.20
2022-09-06T15:54:44.481Z,0.90
2022-09-06T15:57:11.712Z,0.90
2022-09-06T15:59:39.698Z,1.17
2022-09-06T16:02:06.806Z,1.00
2022-09-06T16:04:33.738Z,1.10
2022-09-06T16:07:00.282Z,1.00
2022-09-06T16:09:26.892Z,1.13
2022-09-06T16:11:54.366Z,1.38
2022-09-06T16:14:20.892Z,1.00
2022-09-06T16:16:47.785Z,0.90
2022-09-06T16:19:14.398Z,1.13
2022-09-06T16:21:43.169Z,1.20
2022-09-06T16:24:12.550Z,1.27
2022-09-06T16:26:41.823Z,0.90
2022-09-06T16:29:09.924Z,0.97
2022-09-06T16:31:40.077Z,1.20
2022-09-06T16:34:11.943Z,1.23
2022-09-06T16:36:39.531Z,1.23
2022-09-06T16:41:42.926Z,1.05
2022-09-06T16:44:16.506Z,1.08
2022-09-06T16:46:48.416Z,1.10
2022-09-06T16:49:19.636Z,1.05
2022-09-06T16:51:47.795Z,1.30
2022-09-06T16:56:55.862Z,1.20
2022-09-06T16:59:22.547Z,1.10
2022-09-06T17:01:49.297Z,1.13
2022-09-06T17:04:16.007Z,1.25
2022-09-06T17:06:44.702Z,1.20
2022-09-06T17:11:54.209Z,1.40
2022-09-06T17:14:20.775Z,1.38
2022-09-06T17:19:45.218Z,1.23
2022-09-06T17:22:12.772Z,1.35
2022-09-06T17:27:20.165Z,1.40
2022-09-06T17:29:46.811Z,1.80
2022-09-06T17:32:13.338Z,1.50
2022-09-06T17:37:19.560Z,1.90
2022-09-06T17:39:46.210Z,1.88
2022-09-06T17:42:13.204Z,1.70
2022-09-06T17:44:39.725Z,2.00
2022-09-06T17:47:12.925Z,1.88
2022-09-06T17:52:20.761Z,1.90
2022-09-06T17:54:47.431Z,2.15
2022-09-06T17:57:13.991Z,1.75
2022-09-06T17:59:40.511Z,2.13
2022-09-06T18:15:10.764Z,1.75
2022-09-06T18:17:37.243Z,1.77
2022-09-06T18:20:04.845Z,2.00
2022-09-06T18:22:31.702Z,2.28
2022-09-06T18:24:58.548Z,2.15
2022-09-06T18:27:25.752Z,2.13
2022-09-06T18:29:52.439Z,1.85
2022-09-06T18:32:19.019Z,1.95
2022-09-06T18:34:45.511Z,2.10
2022-09-06T18:37:12.150Z,1.80
2022-09-06T18:39:39.629Z,1.58
2022-09-06T18:42:11.078Z,1.90
2022-09-06T18:44:38.198Z,1.90
2022-09-06T18:47:07.193Z,1.67
2022-09-06T18:49:34.749Z,1.60
2022-09-06T18:52:02.507Z,1.85
2022-09-06T18:54:29.454Z,1.73
2022-09-06T18:56:56.389Z,1.70
2022-09-06T18:59:23.111Z,1.80
2022-09-06T19:01:49.779Z,1.65
2022-09-06T19:04:16.507Z,1.80
2022-09-06T19:06:44.319Z,1.77
2022-09-06T19:09:14.164Z,1.40
2022-09-06T19:11:42.741Z,2.00
2022-09-06T19:14:09.850Z,1.70
2022-09-06T19:16:36.519Z,1.67
2022-09-06T19:19:08.373Z,1.77
2022-09-06T19:21:39.390Z,1.55
2022-09-06T19:24:10.195Z,1.75
2022-09-06T19:26:39.251Z,1.80
2022-09-06T19:29:09.112Z,1.70
2022-09-06T19:31:37.634Z,1.60
2022-09-06T19:34:04.647Z,1.48
2022-09-06T19:36:32.270Z,1.50
2022-09-06T19:39:07.930Z,1.60
2022-09-06T19:41:37.934Z,1.67
2022-09-06T19:44:05.881Z,1.70
2022-09-06T19:46:33.548Z,1.58
2022-09-06T19:49:00.549Z,1.65
2022-09-06T19:51:27.448Z,1.30
2022-09-06T19:54:02.754Z,1.50
2022-09-06T19:56:33.402Z,1.58
2022-09-06T19:59:05.998Z,1.85
2022-09-06T20:01:34.575Z,1.60
2022-09-06T20:04:03.451Z,1.65
2022-09-06T20:06:31.047Z,1.80
2022-09-06T20:08:59.500Z,1.40
2022-09-06T20:11:31.603Z,1.52
2022-09-06T20:13:59.402Z,1.70
2022-09-06T20:16:26.761Z,1.65
2022-09-06T20:18:56.910Z,1.70
2022-09-06T20:23:51.753Z,1.73
2022-09-06T20:26:19.601Z,1.70
2022-09-06T20:28:47.291Z,1.98
2022-09-06T20:31:16.512Z,1.98
2022-09-06T20:33:48.723Z,1.52
2022-09-06T20:36:17.536Z,1.80
2022-09-06T20:38:45.013Z,1.70
2022-09-06T20:41:17.769Z,1.65
2022-09-06T20:43:44.765Z,1.30
2022-09-06T20:46:14.750Z,1.63
2022-09-06T20:53:52.881Z,1.65
2022-09-06T20:56:22.817Z,1.60
2022-09-06T20:58:51.453Z,1.55
2022-09-06T21:01:22.486Z,1.50
2022-09-06T21:03:51.935Z,1.80
2022-09-06T21:06:20.321Z,1.63
2022-09-06T21:08:47.918Z,1.90
2022-09-06T21:11:14.558Z,2.00
2022-09-06T21:13:41.124Z,1.80
2022-09-06T21:16:08.234Z,1.55
2022-09-06T21:18:35.837Z,2.10
2022-09-06T21:21:05.224Z,1.92
2022-09-06T21:23:34.937Z,1.52
2022-09-06T21:26:12.614Z,2.17
2022-09-06T21:28:40.739Z,1.52
2022-09-06T21:31:19.845Z,1.65
2022-09-06T21:33:48.923Z,1.90
2022-09-06T21:36:17.434Z,1.67
2022-09-06T21:38:46.545Z,1.98
2022-09-06T21:41:15.322Z,1.90
2022-09-06T21:43:42.455Z,2.08
2022-09-06T21:46:14.349Z,1.80
2022-09-06T21:48:43.719Z,1.90
2022-09-06T21:51:15.657Z,2.10
2022-09-06T21:53:44.522Z,1.73
2022-09-06T21:56:11.579Z,1.70
2022-09-06T21:58:38.162Z,1.80
2022-09-06T22:01:05.287Z,2.00
2022-09-06T22:03:36.777Z,1.98
2022-09-06T22:06:28.749Z,2.00
2022-09-06T22:08:57.769Z,1.63
2022-09-06T22:11:29.710Z,2.10
2022-09-06T22:14:00.866Z,1.90
2022-09-06T22:16:28.770Z,1.98
2022-09-06T22:18:55.758Z,1.98
2022-09-06T22:21:22.966Z,2.00
2022-09-06T22:23:56.708Z,1.90
2022-09-06T22:26:24.872Z,1.98
2022-09-06T22:28:56.637Z,1.67
2022-09-06T22:31:24.391Z,1.67
2022-09-06T22:33:51.205Z,1.70
2022-09-06T22:36:17.789Z,1.83
2022-09-06T22:38:44.761Z,1.88
2022-09-06T22:41:11.828Z,1.60
2022-09-06T22:43:38.463Z,1.90
2022-09-06T22:46:08.113Z,2.00
2022-09-06T22:48:35.383Z,1.85
2022-09-06T22:51:02.981Z,1.83
2022-09-06T22:53:30.820Z,1.83
2022-09-06T22:55:57.378Z,1.77
2022-09-06T22:58:26.883Z,1.55
2022-09-06T23:00:54.827Z,1.83
2022-09-06T23:03:22.202Z,1.90
2022-09-06T23:05:49.698Z,1.55
2022-09-06T23:08:16.341Z,1.52
2022-09-06T23:10:44.476Z,1.75
2022-09-06T23:13:11.345Z,1.77
2022-09-06T23:15:40.805Z,1.80
2022-09-06T23:18:07.892Z,1.48
2022-09-06T23:20:36.891Z,1.58
2022-09-06T23:23:04.911Z,1.77
2022-09-06T23:25:31.466Z,1.65
2022-09-06T23:28:00.392Z,1.50
2022-09-06T23:30:26.889Z,1.40
2022-09-06T23:32:53.522Z,1.23
2022-09-06T23:35:20.015Z,1.00
2022-09-06T23:37:50.000Z,1.38
2022-09-06T23:40:17.019Z,1.50
2022-09-06T23:42:43.594Z,1.60
2022-09-06T23:45:10.716Z,1.20
2022-09-06T23:47:38.004Z,1.40
2022-09-06T23:50:05.510Z,1.02
2022-09-06T23:52:31.997Z,1.13
2022-09-06T23:54:58.503Z,1.40
2022-09-06T23:57:24.970Z,1.40
2022-09-06T23:59:51.475Z,1.20
